createdAt,value
2023-01-06T00:01:27.779Z,76.66
2023-01-06T00:03:59.278Z,76.62
2023-01-06T00:06:29.560Z,76.68
2023-01-06T00:09:02.655Z,75.94
2023-01-06T00:11:30.971Z,75.99
2023-01-06T00:14:00.305Z,75.63
2023-01-06T00:16:28.121Z,74.35
2023-01-06T00:18:58.596Z,74.86
2023-01-06T00:21:27.438Z,74.50
2023-01-06T00:23:55.570Z,74.06
2023-01-06T00:26:24.157Z,74.70
2023-01-06T00:28:56.926Z,74.35
2023-01-06T00:31:26.934Z,74.30
2023-01-06T00:33:58.456Z,74.59
2023-01-06T00:36:26.362Z,74.83
2023-01-06T00:38:54.259Z,75.38
2023-01-06T00:41:40.768Z,75.74
2023-01-06T00:44:09.340Z,75.32
2023-01-06T00:46:37.258Z,75.42
2023-01-06T00:49:07.436Z,75.33
2023-01-06T00:51:39.108Z,73.54
2023-01-06T00:54:26.525Z,73.45
2023-01-06T00:56:55.561Z,72.59
2023-01-06T00:59:26.276Z,72.68
2023-01-06T01:01:58.087Z,72.06
2023-01-06T01:04:27.223Z,72.16
2023-01-06T01:06:55.572Z,71.67
2023-01-06T01:09:27.326Z,71.86
2023-01-06T01:12:10.179Z,71.42
2023-01-06T01:14:46.931Z,70.98
2023-01-06T01:17:25.037Z,70.93
2023-01-06T01:19:55.746Z,70.72
2023-01-06T01:22:24.953Z,71.16
2023-01-06T01:24:52.914Z,70.46
2023-01-06T01:27:20.688Z,69.97
2023-01-06T01:29:48.672Z,69.91
2023-01-06T01:32:16.343Z,70.13
2023-01-06T01:34:44.645Z,70.47
2023-01-06T01:37:12.342Z,70.59
2023-01-06T01:39:40.249Z,70.92
2023-01-06T01:42:18.138Z,70.52
2023-01-06T01:45:17.775Z,70.77
2023-01-06T01:48:01.169Z,71.02
2023-01-06T01:50:37.031Z,71.15
2023-01-06T01:53:12.738Z,71.13
2023-01-06T01:55:41.263Z,70.56
2023-01-06T01:58:10.374Z,70.63
2023-01-06T02:00:40.014Z,70.80
2023-01-06T02:03:07.994Z,71.07
2023-01-06T02:05:42.842Z,71.52
2023-01-06T02:08:34.171Z,71.94
2023-01-06T02:11:03.350Z,72.16
2023-01-06T02:13:33.337Z,72.69
2023-01-06T02:16:34.435Z,71.61
2023-01-06T02:19:47.332Z,71.47
2023-01-06T02:22:49.074Z,71.93
2023-01-06T02:26:04.041Z,72.08
2023-01-06T02:29:27.211Z,72.17
2023-01-06T02:32:30.109Z,72.31
2023-01-06T02:35:31.324Z,71.94
2023-01-06T02:38:31.869Z,71.89
2023-01-06T02:41:12.515Z,71.79
2023-01-06T02:44:10.642Z,71.65
2023-01-06T02:47:15.341Z,71.62
2023-01-06T02:50:22.157Z,71.54
2023-01-06T02:53:26.997Z,71.59
2023-01-06T02:55:58.888Z,71.48
2023-01-06T02:59:02.399Z,70.95
2023-01-06T03:01:42.434Z,70.62
2023-01-06T03:04:21.183Z,70.45
2023-01-06T03:06:52.475Z,70.57
2023-01-06T03:09:27.143Z,71.03
2023-01-06T03:11:54.918Z,71.89
2023-01-06T03:14:31.487Z,71.55
2023-01-06T03:16:59.381Z,72.25
2023-01-06T03:19:32.350Z,71.96
2023-01-06T03:22:03.108Z,71.67
2023-01-06T03:24:31.057Z,71.44
2023-01-06T03:26:59.876Z,71.16
2023-01-06T03:29:29.775Z,70.74
2023-01-06T03:32:12.215Z,70.64
2023-01-06T03:35:18.461Z,70.33
2023-01-06T03:38:01.073Z,70.07
2023-01-06T03:41:00.506Z,70.31
2023-01-06T03:43:36.824Z,69.59
2023-01-06T03:46:44.730Z,70.14
2023-01-06T03:49:25.844Z,70.51
2023-01-06T03:52:26.358Z,70.36
2023-01-06T03:55:31.522Z,70.05
2023-01-06T03:58:02.190Z,69.89
2023-01-06T04:00:37.075Z,70.07
2023-01-06T04:03:14.027Z,70.37
2023-01-06T04:05:43.919Z,70.33
2023-01-06T04:08:11.962Z,69.32
2023-01-06T04:10:41.622Z,69.65
2023-01-06T04:13:09.496Z,69.34
2023-01-06T04:15:37.170Z,69.16
2023-01-06T04:18:08.114Z,69.46
2023-01-06T04:20:38.885Z,69.13
2023-01-06T04:23:17.462Z,69.33
2023-01-06T04:25:45.545Z,69.76
2023-01-06T04:28:27.116Z,69.92
2023-01-06T04:31:01.936Z,70.01
2023-01-06T04:33:33.425Z,70.15
2023-01-06T04:36:04.490Z,70.26
2023-01-06T04:38:33.323Z,71.08
2023-01-06T04:41:01.016Z,71.52
2023-01-06T04:43:28.926Z,71.97
2023-01-06T04:45:59.510Z,72.60
2023-01-06T04:48:27.518Z,73.12
2023-01-06T04:51:07.201Z,72.64
2023-01-06T04:53:37.644Z,72.39
2023-01-06T04:56:09.085Z,72.60
2023-01-06T04:58:38.053Z,73.02
2023-01-06T05:01:10.580Z,73.70
2023-01-06T05:03:40.196Z,73.85
2023-01-06T05:06:11.870Z,73.54
2023-01-06T05:08:41.894Z,73.94
2023-01-06T05:11:14.617Z,73.99
2023-01-06T05:13:42.987Z,74.66
2023-01-06T05:16:26.176Z,73.84
2023-01-06T05:18:55.013Z,73.91
2023-01-06T05:21:27.226Z,73.51
2023-01-06T05:23:55.980Z,73.98
2023-01-06T05:26:26.941Z,74.36
2023-01-06T05:28:55.447Z,74.16
2023-01-06T05:31:24.529Z,74.05
2023-01-06T05:34:00.955Z,74.00
2023-01-06T05:36:28.666Z,74.22
2023-01-06T05:38:56.569Z,74.87
2023-01-06T05:41:24.074Z,74.98
2023-01-06T05:43:51.995Z,75.19
2023-01-06T05:46:19.623Z,74.40
2023-01-06T05:48:47.557Z,74.61
2023-01-06T05:51:16.629Z,74.04
2023-01-06T05:53:47.330Z,72.95
2023-01-06T05:56:21.710Z,73.18
2023-01-06T05:58:53.416Z,73.27
2023-01-06T06:01:31.308Z,72.70
2023-01-06T06:03:59.493Z,72.69
2023-01-06T06:06:29.597Z,73.18
2023-01-06T06:08:58.766Z,72.48
2023-01-06T06:11:26.368Z,72.26
2023-01-06T06:13:56.690Z,72.51
2023-01-06T06:16:27.944Z,72.17
2023-01-06T06:18:59.324Z,72.96
2023-01-06T06:21:30.328Z,72.65
2023-01-06T06:24:00.069Z,72.40
2023-01-06T06:26:28.156Z,71.73
2023-01-06T06:28:55.936Z,71.47
2023-01-06T06:31:27.522Z,71.72
2023-01-06T06:33:59.150Z,72.10
2023-01-06T06:36:28.685Z,72.65
2023-01-06T06:39:15.653Z,72.85
2023-01-06T06:41:43.285Z,72.79
2023-01-06T06:44:11.205Z,73.47
2023-01-06T06:46:38.829Z,73.51
2023-01-06T06:49:06.798Z,73.13
2023-01-06T06:51:35.245Z,73.43
2023-01-06T06:54:04.825Z,73.07
2023-01-06T06:56:32.507Z,72.63
2023-01-06T06:59:00.528Z,71.66
2023-01-06T07:01:28.295Z,71.03
2023-01-06T07:03:56.241Z,71.29
2023-01-06T07:06:28.798Z,71.41
2023-01-06T07:08:57.318Z,71.76
2023-01-06T07:11:24.904Z,71.68
2023-01-06T07:13:52.910Z,71.40
2023-01-06T07:16:23.215Z,71.31
2023-01-06T07:18:51.127Z,71.02
2023-01-06T07:21:18.964Z,71.20
2023-01-06T07:23:46.870Z,70.99
2023-01-06T07:26:15.828Z,70.87
2023-01-06T07:28:43.955Z,71.11
2023-01-06T07:31:11.861Z,71.16
2023-01-06T07:33:39.798Z,71.76
2023-01-06T07:36:08.196Z,71.97
2023-01-06T07:38:36.221Z,71.65
2023-01-06T07:41:03.843Z,72.32
2023-01-06T07:43:31.748Z,72.15
2023-01-06T07:45:59.443Z,72.22
2023-01-06T07:48:27.406Z,71.93
2023-01-06T07:50:55.036Z,71.99
2023-01-06T07:53:23.281Z,71.90
2023-01-06T07:55:52.979Z,71.93
2023-01-06T07:58:23.946Z,71.89
2023-01-06T08:00:52.173Z,71.56
2023-01-06T08:03:20.192Z,71.58
2023-01-06T08:05:47.903Z,71.96
2023-01-06T08:08:15.838Z,71.34
2023-01-06T08:10:44.100Z,71.30
2023-01-06T08:13:12.116Z,71.29
2023-01-06T08:15:40.433Z,71.58
2023-01-06T08:18:08.748Z,71.71
2023-01-06T08:20:36.404Z,71.04
2023-01-06T08:23:04.358Z,70.18
2023-01-06T08:25:31.942Z,70.14
2023-01-06T08:28:00.491Z,70.12
2023-01-06T08:30:29.542Z,70.04
2023-01-06T08:32:59.550Z,69.98
2023-01-06T08:35:27.666Z,69.62
2023-01-06T08:37:55.781Z,69.71
2023-01-06T08:40:23.778Z,69.60
2023-01-06T08:42:51.939Z,68.84
2023-01-06T08:45:19.492Z,68.45
2023-01-06T08:47:47.760Z,67.26
2023-01-06T08:50:15.605Z,67.95
2023-01-06T08:52:43.586Z,66.91
2023-01-06T08:55:11.134Z,66.65
2023-01-06T08:57:39.769Z,66.41
2023-01-06T09:00:08.295Z,65.91
2023-01-06T09:02:36.297Z,66.55
2023-01-06T09:05:06.231Z,66.93
2023-01-06T09:07:34.243Z,66.87
2023-01-06T09:10:44.123Z,66.21
2023-01-06T09:13:15.120Z,66.69
2023-01-06T09:15:45.247Z,67.19
2023-01-06T09:18:13.043Z,66.97
2023-01-06T09:20:40.769Z,66.40
2023-01-06T09:23:08.921Z,66.45
2023-01-06T09:25:36.494Z,66.93
2023-01-06T09:28:04.409Z,66.74
2023-01-06T09:30:32.319Z,67.78
2023-01-06T09:33:00.286Z,67.77
2023-01-06T09:35:27.896Z,67.71
2023-01-06T09:37:56.025Z,67.77
2023-01-06T09:40:41.647Z,66.56
2023-01-06T09:43:44.367Z,65.80
2023-01-06T09:46:16.770Z,65.86
2023-01-06T09:49:25.918Z,64.48
2023-01-06T09:52:03.327Z,64.12
2023-01-06T09:54:42.255Z,64.25
2023-01-06T09:57:20.614Z,64.63
2023-01-06T10:00:10.936Z,63.62
2023-01-06T10:02:42.529Z,64.31
2023-01-06T10:05:28.316Z,63.73
2023-01-06T10:08:39.169Z,63.59
2023-01-06T10:11:31.449Z,63.33
2023-01-06T10:14:53.022Z,63.52
2023-01-06T10:17:47.871Z,63.87
2023-01-06T10:21:10.347Z,63.94
2023-01-06T10:24:39.857Z,64.72
2023-01-06T10:28:03.738Z,64.67
2023-01-06T10:30:44.947Z,64.65
2023-01-06T10:33:31.159Z,64.60
2023-01-06T10:36:01.908Z,64.40
2023-01-06T10:38:40.379Z,64.00
2023-01-06T10:41:32.804Z,62.52
2023-01-06T10:44:00.861Z,62.69
2023-01-06T10:46:36.133Z,63.36
2023-01-06T10:49:08.539Z,63.46
2023-01-06T10:51:40.280Z,63.31
2023-01-06T10:54:15.524Z,62.85
2023-01-06T10:57:01.603Z,61.61
2023-01-06T10:59:30.624Z,62.08
2023-01-06T11:01:59.154Z,62.38
2023-01-06T11:04:28.274Z,60.32
2023-01-06T11:07:01.502Z,60.80
2023-01-06T11:09:41.485Z,59.80
2023-01-06T11:12:17.268Z,61.10
2023-01-06T11:15:02.730Z,60.79
2023-01-06T11:17:31.623Z,61.29
2023-01-06T11:20:14.430Z,61.17
2023-01-06T11:22:43.832Z,61.86
2023-01-06T11:25:20.959Z,61.17
2023-01-06T11:28:09.735Z,61.17
2023-01-06T11:31:09.309Z,60.69
2023-01-06T11:34:02.002Z,61.69
2023-01-06T11:36:33.250Z,59.60
2023-01-06T11:39:15.487Z,59.25
2023-01-06T11:41:49.859Z,59.10
2023-01-06T11:44:27.904Z,59.75
2023-01-06T11:47:15.942Z,60.04
2023-01-06T11:49:49.146Z,59.37
2023-01-06T11:52:31.564Z,59.00
2023-01-06T11:55:08.858Z,58.49
2023-01-06T11:57:55.636Z,56.92
2023-01-06T12:01:06.440Z,55.14
2023-01-06T12:03:46.383Z,55.15
2023-01-06T12:06:14.487Z,54.06
2023-01-06T12:09:06.623Z,53.72
2023-01-06T12:11:53.009Z,53.42
2023-01-06T12:14:30.585Z,52.39
2023-01-06T12:17:19.263Z,52.36
2023-01-06T12:20:06.136Z,52.23
2023-01-06T12:22:59.285Z,52.90
2023-01-06T12:25:45.348Z,52.82
2023-01-06T12:28:35.476Z,51.28
2023-01-06T12:31:51.547Z,50.85
2023-01-06T12:34:34.659Z,50.17
2023-01-06T12:37:31.849Z,48.37
2023-01-06T12:40:23.850Z,47.44
2023-01-06T12:43:15.693Z,47.43
2023-01-06T12:46:02.912Z,47.33
2023-01-06T12:48:58.396Z,47.77
2023-01-06T12:51:50.110Z,47.94
2023-01-06T12:54:38.338Z,48.10
2023-01-06T12:57:54.972Z,48.96
2023-01-06T13:00:49.581Z,49.33
2023-01-06T13:03:20.770Z,50.54
2023-01-06T13:06:10.139Z,50.83
2023-01-06T13:08:45.881Z,51.47
2023-01-06T13:11:52.670Z,51.54
2023-01-06T13:14:47.785Z,51.38
2023-01-06T13:17:42.304Z,50.44
2023-01-06T13:20:33.400Z,48.09
2023-01-06T13:23:32.895Z,47.67
2023-01-06T13:26:36.334Z,47.41
2023-01-06T13:29:06.512Z,47.16
2023-01-06T13:32:08.013Z,46.99
2023-01-06T13:34:47.862Z,46.74
2023-01-06T13:37:57.138Z,46.43
2023-01-06T13:40:29.823Z,46.42
2023-01-06T13:43:22.168Z,45.94
2023-01-06T13:45:56.493Z,46.50
2023-01-06T13:48:30.960Z,47.16
2023-01-06T13:51:09.356Z,47.86
2023-01-06T13:53:42.868Z,48.15
2023-01-06T13:56:13.641Z,48.36
2023-01-06T13:58:44.256Z,48.64
2023-01-06T14:01:19.034Z,48.63
2023-01-06T14:03:51.819Z,48.41
2023-01-06T14:06:22.475Z,48.72
2023-01-06T14:08:57.070Z,48.99
2023-01-06T14:11:39.402Z,49.22
2023-01-06T14:14:30.032Z,49.33
2023-01-06T14:16:58.603Z,49.46
2023-01-06T14:19:38.642Z,49.58
2023-01-06T14:22:22.044Z,49.94
2023-01-06T14:25:01.408Z,50.54
2023-01-06T14:27:47.070Z,50.77
2023-01-06T14:30:31.906Z,50.68
2023-01-06T14:33:06.790Z,50.99
2023-01-06T14:35:44.346Z,51.55
2023-01-06T14:38:31.782Z,51.34
2023-01-06T14:41:32.622Z,51.96
2023-01-06T14:44:12.690Z,52.03
2023-01-06T14:46:55.108Z,52.90
2023-01-06T14:49:46.658Z,53.05
2023-01-06T14:52:23.203Z,53.20
2023-01-06T14:54:53.547Z,53.42
2023-01-06T14:57:42.788Z,53.56
2023-01-06T15:00:27.833Z,54.28
2023-01-06T15:03:19.544Z,54.60
2023-01-06T15:05:47.882Z,54.89
2023-01-06T15:08:19.429Z,54.84
2023-01-06T15:10:51.646Z,54.90
2023-01-06T15:13:32.731Z,55.35
2023-01-06T15:16:38.087Z,55.49
2023-01-06T15:19:15.337Z,55.98
2023-01-06T15:21:46.880Z,56.10
2023-01-06T15:24:22.766Z,56.02
2023-01-06T15:26:53.117Z,55.90
2023-01-06T15:29:24.969Z,56.33
2023-01-06T15:31:54.585Z,56.08
2023-01-06T15:34:39.797Z,56.30
2023-01-06T15:37:15.231Z,56.82
2023-01-06T15:39:44.189Z,57.43
2023-01-06T15:42:13.886Z,58.46
2023-01-06T15:44:53.181Z,58.77
2023-01-06T15:47:42.443Z,59.57
2023-01-06T15:50:20.362Z,59.99
2023-01-06T15:52:57.421Z,60.84
2023-01-06T15:55:31.968Z,61.42
2023-01-06T15:58:09.519Z,62.17
2023-01-06T16:00:50.639Z,62.89
2023-01-06T16:03:25.831Z,63.35
2023-01-06T16:06:12.109Z,63.58
2023-01-06T16:08:44.227Z,63.75
2023-01-06T16:11:38.276Z,64.12
2023-01-06T16:14:35.155Z,64.13
2023-01-06T16:17:06.165Z,64.28
2023-01-06T16:19:36.511Z,64.93
2023-01-06T16:22:48.474Z,64.93
2023-01-06T16:25:32.985Z,65.23
2023-01-06T16:28:05.024Z,65.77
2023-01-06T16:30:36.623Z,65.81
2023-01-06T16:33:05.604Z,66.45
2023-01-06T16:35:35.006Z,66.20
2023-01-06T16:38:03.572Z,66.08
2023-01-06T16:40:32.560Z,66.17
2023-01-06T16:43:02.526Z,66.09
2023-01-06T16:45:42.806Z,66.02
2023-01-06T16:48:17.325Z,66.21
2023-01-06T16:50:50.670Z,66.62
2023-01-06T16:53:23.480Z,66.11
2023-01-06T16:55:54.179Z,66.60
2023-01-06T16:58:30.035Z,66.51
2023-01-06T17:01:08.472Z,67.04
2023-01-06T17:03:38.348Z,67.33
2023-01-06T17:06:32.588Z,66.69
2023-01-06T17:09:19.159Z,66.83
2023-01-06T17:11:48.334Z,67.23
2023-01-06T17:14:22.194Z,67.32
2023-01-06T17:16:53.279Z,67.23
2023-01-06T17:19:32.472Z,66.86
2023-01-06T17:22:30.710Z,66.07
2023-01-06T17:25:09.037Z,66.36
2023-01-06T17:27:36.677Z,67.19
2023-01-06T17:30:20.074Z,67.35
2023-01-06T17:32:48.215Z,67.96
2023-01-06T17:35:25.990Z,67.02
2023-01-06T17:37:57.382Z,66.12
2023-01-06T17:40:38.623Z,66.14
2023-01-06T17:43:24.971Z,66.45
2023-01-06T17:45:53.113Z,67.33
2023-01-06T17:48:20.802Z,66.85
2023-01-06T17:50:56.992Z,67.06
2023-01-06T17:53:54.908Z,66.89
2023-01-06T17:56:24.070Z,67.55
2023-01-06T17:58:52.288Z,67.34
2023-01-06T18:01:30.249Z,67.58
2023-01-06T18:04:00.142Z,67.63
2023-01-06T18:06:30.608Z,68.59
2023-01-06T18:09:05.949Z,68.43
2023-01-06T18:11:49.822Z,68.39
2023-01-06T18:14:32.520Z,69.02
2023-01-06T18:17:25.430Z,69.13
2023-01-06T18:19:53.599Z,69.71
2023-01-06T18:22:25.654Z,69.85
2023-01-06T18:24:58.060Z,69.85
2023-01-06T18:27:33.380Z,69.67
2023-01-06T18:30:27.982Z,69.62
2023-01-06T18:32:56.294Z,69.34
2023-01-06T18:35:28.785Z,69.25
2023-01-06T18:38:02.496Z,68.93
2023-01-06T18:40:31.664Z,68.78
2023-01-06T18:43:02.990Z,68.74
2023-01-06T18:45:36.129Z,68.83
2023-01-06T18:48:29.211Z,68.99
2023-01-06T18:51:00.251Z,69.05
2023-01-06T18:53:47.330Z,68.79
2023-01-06T18:56:23.791Z,68.66
2023-01-06T18:58:57.705Z,68.62
2023-01-06T19:01:47.313Z,69.01
2023-01-06T19:04:19.447Z,69.34
2023-01-06T19:06:54.565Z,70.17
2023-01-06T19:09:47.858Z,70.46
2023-01-06T19:12:36.257Z,71.10
2023-01-06T19:15:23.431Z,71.28
2023-01-06T19:17:53.942Z,71.90
2023-01-06T19:20:22.939Z,71.79
2023-01-06T19:22:50.730Z,72.22
2023-01-06T19:25:43.195Z,72.29
2023-01-06T19:28:33.059Z,72.33
2023-01-06T19:31:06.099Z,72.43
2023-01-06T19:33:34.771Z,72.34
2023-01-06T19:36:37.122Z,72.93
2023-01-06T19:39:38.145Z,73.29
2023-01-06T19:42:30.242Z,72.97
2023-01-06T19:45:01.621Z,73.24
2023-01-06T19:47:37.929Z,73.53
2023-01-06T19:50:35.285Z,73.90
2023-01-06T19:53:03.307Z,74.08
2023-01-06T19:55:33.350Z,74.08
2023-01-06T19:58:12.394Z,74.00
2023-01-06T20:00:50.579Z,74.12
2023-01-06T20:03:35.953Z,74.44
2023-01-06T20:06:04.556Z,74.29
2023-01-06T20:08:32.457Z,74.10
2023-01-06T20:11:00.245Z,74.46
2023-01-06T20:13:28.092Z,74.18
2023-01-06T20:15:56.253Z,74.25
2023-01-06T20:18:24.323Z,74.37
2023-01-06T20:20:51.991Z,74.31
2023-01-06T20:23:19.925Z,74.14
2023-01-06T20:25:47.573Z,74.24
2023-01-06T20:28:16.799Z,74.23
2023-01-06T20:30:46.350Z,74.18
2023-01-06T20:37:03.681Z,74.21
2023-01-06T20:39:31.613Z,74.29
2023-01-06T20:42:00.424Z,74.02
2023-01-06T20:44:28.355Z,73.25
2023-01-06T20:46:55.860Z,72.92
2023-01-06T20:49:23.414Z,72.64
2023-01-06T20:51:51.304Z,72.17
2023-01-06T20:54:19.110Z,71.54
2023-01-06T20:56:47.003Z,71.59
2023-01-06T20:59:14.801Z,71.21
2023-01-06T21:01:42.910Z,70.75
2023-01-06T21:04:10.856Z,70.25
2023-01-06T21:06:38.720Z,69.77
2023-01-06T21:09:06.295Z,69.57
2023-01-06T21:11:34.271Z,69.34
2023-01-06T21:14:01.930Z,69.15
2023-01-06T21:16:29.738Z,69.26
2023-01-06T21:19:00.357Z,68.88
2023-01-06T21:21:28.267Z,68.69
2023-01-06T21:23:56.371Z,68.36
2023-01-06T21:26:24.234Z,68.43
2023-01-06T21:28:51.968Z,68.46
2023-01-06T21:31:19.854Z,68.22
2023-01-06T21:33:47.433Z,68.41
2023-01-06T21:36:16.149Z,68.84
2023-01-06T21:38:43.809Z,69.07
2023-01-06T21:41:30.601Z,68.91
2023-01-06T21:43:58.320Z,68.88
2023-01-06T21:46:26.405Z,69.00
2023-01-06T21:48:54.089Z,69.04
2023-01-06T21:51:22.378Z,69.19
2023-01-06T21:53:49.973Z,69.03
2023-01-06T21:56:18.176Z,69.13
2023-01-06T21:58:45.712Z,69.26
2023-01-06T22:01:14.620Z,69.39
2023-01-06T22:03:42.451Z,69.72
2023-01-06T22:06:11.031Z,69.82
2023-01-06T22:08:39.101Z,69.54
2023-01-06T22:11:08.355Z,69.71
2023-01-06T22:13:36.380Z,69.73
2023-01-06T22:16:05.011Z,69.95
2023-01-06T22:18:34.342Z,70.17
2023-01-06T22:21:03.498Z,70.49
2023-01-06T22:23:32.407Z,70.36
2023-01-06T22:26:00.295Z,70.72
2023-01-06T22:28:28.513Z,70.68
2023-01-06T22:30:56.883Z,70.83
2023-01-06T22:33:24.858Z,70.75
2023-01-06T22:35:57.722Z,70.69
2023-01-06T22:38:25.723Z,70.52
2023-01-06T22:40:53.611Z,70.33
2023-01-06T22:43:22.542Z,70.23
2023-01-06T22:45:56.720Z,69.88
2023-01-06T22:48:25.267Z,69.64
2023-01-06T22:51:01.974Z,69.68
2023-01-06T22:53:31.591Z,69.43
2023-01-06T22:56:06.053Z,69.33
2023-01-06T22:58:37.595Z,68.73
2023-01-06T23:01:07.408Z,68.53
2023-01-06T23:03:35.759Z,68.41
2023-01-06T23:06:11.302Z,67.69
2023-01-06T23:08:51.071Z,67.68
2023-01-06T23:11:28.090Z,67.35
2023-01-06T23:13:58.093Z,67.14
2023-01-06T23:16:27.266Z,67.27
2023-01-06T23:18:55.297Z,66.92
2023-01-06T23:21:26.735Z,66.73
2023-01-06T23:23:54.953Z,66.61
2023-01-06T23:26:30.658Z,66.55
2023-01-06T23:28:58.772Z,66.65
2023-01-06T23:31:35.714Z,66.63
2023-01-06T23:34:10.075Z,66.57
2023-01-06T23:36:38.739Z,66.21
2023-01-06T23:39:08.360Z,66.70
2023-01-06T23:41:37.735Z,66.51
2023-01-06T23:44:06.550Z,66.24
2023-01-06T23:46:39.883Z,66.42
2023-01-06T23:49:10.089Z,66.44
2023-01-06T23:51:39.339Z,66.32
2023-01-06T23:54:07.866Z,66.07
2023-01-06T23:56:37.424Z,66.18
2023-01-06T23:59:07.713Z,66.22
